Tatarsk, Russia
Current Conditions -  °F | °C
As of 10:00 AM on Monday 24 Nov 2014 (Local Time) from UNOO Reporting Station
Blowing Snow Blowing Snow  
Wind Chill: -42°   Ceiling: Unl
Heat Index: -18°   Visibility: 0.81mi
Dew Point: -24°   Wind: 13mph
Humidity: 76%   Direction: 340°NNW
Pressure: 30.27"   Gusts: 20mph
Location:  55.22°N, 75.97°E
Report Text: UNOO 240300Z 34006G09MPS 1300 R25/1100V1500D BLSN SCT009M28/M31 Q1025 25421045 TEMPO 1000 BLSN RMK OBST PT OBSC QFE761
Loading
Personal Weather Stations






























Interactive Weather Map New forecast layout! Learn more

10-Day Weather Forecast

Advertisements
Track Severe Weather on mobile